Time;durP1;ratioP1;P1;durP2;ratioP2;P2;SDS_P1;SDS_P2;PMS_P1;PMS_P2;Temp;Humidity;BMP_temperature;BMP_pressure;BME280_temperature;BME280_humidity;BME280_pressure;Samples;Min_cycle;Max_cycle;Signal;HPM_P1;HPM_P2
2023/10/16 00:02:24;;;;;;;;;2.00;2.00;;;;;17.92;64.04;99976.59;5096782;27;45553;-82
2023/10/16 00:04:51;;;;;;;;;2.00;2.00;;;;;17.88;63.98;99967.81;5096892;27;45396;-82
2023/10/16 00:07:21;;;;;;;;;5.00;4.00;;;;;18.11;64.71;99989.66;5096551;27;45349;-83
2023/10/16 00:09:49;;;;;;;;;5.67;4.00;;;;;18.06;64.66;99972.09;5096004;27;45451;-83
2023/10/16 00:12:19;;;;;;;;;5.00;4.00;;;;;18.18;64.88;99986.91;5096145;27;45459;-83
2023/10/16 00:14:46;;;;;;;;;4.75;4.00;;;;;18.13;65.33;99977.31;5096795;27;45480;-83
2023/10/16 00:17:14;;;;;;;;;3.00;3.00;;;;;18.07;65.04;99973.81;5096930;27;46011;-83
2023/10/16 00:19:40;;;;;;;;;3.00;3.00;;;;;18.01;64.64;99965.97;5096935;27;45407;-83
2023/10/16 00:22:18;;;;;;;;;2.67;2.67;;;;;17.97;64.70;99974.81;5095720;27;45420;-84
2023/10/16 00:24:47;;;;;;;;;2.00;2.00;;;;;17.95;64.45;99952.81;5095115;27;45402;-84
2023/10/16 00:27:16;;;;;;;;;1.00;1.00;;;;;17.90;64.25;99933.47;5099145;27;46076;-82
2023/10/16 00:29:45;;;;;;;;;1.33;1.33;;;;;17.86;64.21;99931.75;5098823;27;45262;-83
2023/10/16 00:32:11;;;;;;;;;2.00;2.00;;;;;17.84;64.39;99928.25;5099855;27;45365;-84
2023/10/16 00:34:38;;;;;;;;;2.00;2.00;;;;;17.92;65.30;99936.97;5100473;27;45439;-83
2023/10/16 00:37:05;;;;;;;;;3.67;2.67;;;;;18.02;65.39;99945.69;5098878;27;46373;-84
2023/10/16 00:39:32;;;;;;;;;4.00;3.00;;;;;18.07;65.59;99965.91;5100928;27;45551;-84
2023/10/16 00:41:58;;;;;;;;;3.33;3.00;;;;;18.02;65.17;99951.84;5101173;27;45440;-83
2023/10/16 00:44:33;;;;;;;;;2.00;2.00;;;;;18.10;65.04;99957.06;5100920;27;45186;-83
2023/10/16 00:47:01;;;;;;;;;4.00;3.00;;;;;18.11;65.34;99948.25;5101579;27;45294;-83
2023/10/16 00:49:28;;;;;;;;;3.00;3.00;;;;;17.90;66.03;99933.47;5100118;27;45410;-83
2023/10/16 00:51:54;;;;;;;;;2.67;2.00;;;;;17.83;65.77;99940.59;5100668;27;45596;-83
2023/10/16 00:54:28;;;;;;;;;4.00;1.67;;;;;18.08;65.38;99949.16;5101303;27;45515;-83
2023/10/16 00:56:57;;;;;;;;;2.00;2.00;;;;;18.00;65.22;99929.84;5099517;27;46040;-83
2023/10/16 00:59:24;;;;;;;;;2.00;2.00;;;;;18.14;64.92;99949.97;5099880;27;45475;-83
2023/10/16 01:02:13;;;;;;;;;2.00;1.00;;;;;18.03;65.75;99953.59;5100283;27;45708;-84
2023/10/16 01:04:40;;;;;;;;;2.67;1.00;;;;;17.94;66.01;99951.03;5098799;27;45476;-83
2023/10/16 01:07:07;;;;;;;;;3.33;3.00;;;;;17.76;66.01;99940.63;5099613;27;45638;-83
2023/10/16 01:09:36;;;;;;;;;1.00;1.00;;;;;17.52;66.07;99905.59;5102589;27;45495;-84
2023/10/16 01:12:06;;;;;;;;;2.67;2.00;;;;;17.68;66.63;99940.69;5111925;27;45523;-84
2023/10/16 01:14:35;;;;;;;;;2.00;1.00;;;;;17.74;66.66;99932.69;5113271;27;45152;-84
2023/10/16 01:17:10;;;;;;;;;1.00;1.00;;;;;17.79;66.65;99930.03;5105339;27;45521;-83
2023/10/16 01:19:37;;;;;;;;;1.00;1.00;;;;;17.82;66.23;99924.72;5100431;27;45458;-82
2023/10/16 01:22:03;;;;;;;;;1.00;1.00;;;;;17.77;66.39;99919.47;5100409;27;45309;-82
2023/10/16 01:24:31;;;;;;;;;2.00;2.00;;;;;17.77;65.97;99916.84;5100555;27;45504;-83
2023/10/16 01:27:30;;;;;;;;;1.00;1.00;;;;;17.81;65.96;99928.25;5100093;27;46100;-83
2023/10/16 01:29:49;;;;;;;;;2.00;1.00;;;;;17.85;65.87;99912.38;5099122;27;45407;-83
2023/10/16 01:32:15;;;;;;;;;1.67;1.00;;;;;17.90;66.67;99912.31;5100086;27;45176;-83
2023/10/16 01:34:41;;;;;;;;;1.67;1.33;;;;;17.94;66.69;99911.41;5098126;27;45507;-84
2023/10/16 01:37:08;;;;;;;;;1.00;1.00;;;;;17.73;65.96;99872.84;5097487;27;45424;-84
2023/10/16 01:39:53;;;;;;;;;2.00;1.00;;;;;17.92;66.31;99905.25;5099039;27;46060;-83
2023/10/16 01:42:19;;;;;;;;;2.00;1.00;;;;;17.98;66.84;99907.84;5099160;27;45711;-83
2023/10/16 01:44:45;;;;;;;;;2.00;1.00;;;;;17.89;67.39;99885.03;5098957;27;45271;-83
2023/10/16 01:47:18;;;;;;;;;1.00;1.00;;;;;17.98;67.26;99896.41;5098277;27;45605;-84
2023/10/16 01:49:44;;;;;;;;;2.00;2.00;;;;;17.99;67.17;99898.16;5099287;27;45377;-81
2023/10/16 01:52:11;;;;;;;;;3.00;1.33;;;;;18.03;67.07;99895.47;5098829;27;45705;-83
2023/10/16 01:54:42;;;;;;;;;1.00;1.00;;;;;18.09;66.63;99887.47;5099412;27;45421;-84
2023/10/16 01:57:12;;;;;;;;;1.00;1.00;;;;;18.12;67.21;99880.38;5098968;27;45951;-83
2023/10/16 01:59:44;;;;;;;;;1.00;1.00;;;;;18.15;67.11;99875.94;5098461;27;45289;-82
2023/10/16 02:02:12;;;;;;;;;2.33;2.33;;;;;18.17;67.28;99874.16;5098384;27;45445;-82
2023/10/16 02:04:39;;;;;;;;;1.67;1.00;;;;;18.21;67.36;99880.28;5098751;27;45503;-82
2023/10/16 02:07:08;;;;;;;;;2.00;1.67;;;;;18.20;67.60;99882.03;5098582;27;45508;-83
2023/10/16 02:09:36;;;;;;;;;1.00;1.00;;;;;18.27;67.20;99880.22;5096965;27;45483;-82
2023/10/16 02:12:05;;;;;;;;;3.00;1.33;;;;;18.22;66.92;99874.09;5097681;27;45335;-83
2023/10/16 02:14:32;;;;;;;;;2.33;2.00;;;;;18.20;66.80;99874.09;5098164;27;45562;-81
2023/10/16 02:16:58;;;;;;;;;2.00;2.00;;;;;18.02;67.41;99854.06;5098367;27;46418;-83
2023/10/16 02:19:25;;;;;;;;;3.00;2.00;;;;;18.19;67.30;99866.22;5097773;27;45332;-79
2023/10/16 02:21:53;;;;;;;;;2.00;1.00;;;;;18.21;66.73;99859.13;5098806;27;45361;-82
2023/10/16 02:24:19;;;;;;;;;2.00;2.00;;;;;18.23;66.17;99863.50;5098728;27;45608;-83
2023/10/16 02:26:55;;;;;;;;;1.67;1.67;;;;;18.27;66.07;99864.34;5098141;27;46083;-81
2023/10/16 02:29:22;;;;;;;;;1.00;1.00;;;;;18.33;65.99;99856.34;5097922;27;45506;-79
2023/10/16 02:31:50;;;;;;;;;1.00;1.00;;;;;18.33;66.31;99861.63;5066743;27;46053;-83
2023/10/16 02:34:22;;;;;;;;;2.00;2.00;;;;;18.36;66.57;99858.06;5098841;27;45398;-81
2023/10/16 02:36:50;;;;;;;;;3.00;1.67;;;;;18.33;66.87;99863.41;5098362;27;45525;-82
2023/10/16 02:39:35;;;;;;;;;2.00;2.00;;;;;18.24;66.60;99841.47;5097249;27;45300;-83
2023/10/16 02:42:05;;;;;;;;;1.00;1.00;;;;;18.36;65.91;99852.78;5098538;27;45438;-83
2023/10/16 02:44:33;;;;;;;;;1.67;1.67;;;;;18.33;66.49;99844.91;5098596;27;45416;-83
2023/10/16 02:46:58;;;;;;;;;2.00;2.00;;;;;18.32;66.32;99845.78;5097392;27;46014;-78
2023/10/16 02:49:24;;;;;;;;;1.67;1.00;;;;;18.33;66.64;99843.13;5097041;27;45558;-83
2023/10/16 02:51:52;;;;;;;;;2.67;2.33;;;;;18.39;67.01;99843.03;5097755;27;45539;-83
2023/10/16 02:54:18;;;;;;;;;1.00;1.00;;;;;18.39;66.53;99843.03;5097851;27;45437;-83
2023/10/16 02:56:44;;;;;;;;;1.00;1.00;;;;;18.42;66.85;99839.47;5097859;27;45457;-80
2023/10/16 02:59:11;;;;;;;;;2.33;2.00;;;;;18.34;68.00;99834.28;5097984;27;45558;-83
2023/10/16 03:01:38;;;;;;;;;0.00;0.00;;;;;18.36;67.59;99827.19;5097549;27;45425;-80
2023/10/16 03:04:05;;;;;;;;;2.00;2.00;;;;;18.38;67.45;99828.09;5096891;27;45532;-83
2023/10/16 03:06:31;;;;;;;;;1.67;1.33;;;;;18.32;67.79;99822.84;5097680;27;46083;-80
2023/10/16 03:09:25;;;;;;;;;2.00;1.00;;;;;18.19;68.69;99824.78;5098182;27;45429;-82
2023/10/16 03:11:42;;;;;;;;;2.00;1.00;;;;;18.06;69.21;99829.38;5097435;27;45490;-83
2023/10/16 03:14:08;;;;;;;;;2.67;2.00;;;;;18.04;68.64;99814.41;5098304;27;45540;-83
2023/10/16 03:16:36;;;;;;;;;2.33;1.00;;;;;18.00;68.22;99808.25;5097606;27;45469;-82
2023/10/16 03:19:11;;;;;;;;;2.00;1.00;;;;;18.01;68.42;99825.03;5097300;27;45487;-83
2023/10/16 03:21:39;;;;;;;;;2.67;2.00;;;;;17.73;67.47;99768.97;5097921;27;45406;-83
2023/10/16 03:24:07;;;;;;;;;0.00;0.00;;;;;17.96;67.91;99809.19;5098088;27;45169;-83
2023/10/16 03:26:33;;;;;;;;;2.67;1.67;;;;;17.97;67.91;99813.59;5096928;27;46331;-80
2023/10/16 03:29:02;;;;;;;;;1.00;1.00;;;;;18.04;67.71;99809.13;5097236;27;45420;-83
2023/10/16 03:31:28;;;;;;;;;2.00;1.00;;;;;18.08;67.92;99806.44;5098233;27;45445;-83
2023/10/16 03:33:54;;;;;;;;;1.00;1.00;;;;;18.16;67.73;99797.50;5097934;27;45534;-82
2023/10/16 03:36:21;;;;;;;;;1.67;1.67;;;;;18.14;67.74;99799.31;5097604;27;45329;-83
2023/10/16 03:38:53;;;;;;;;;1.00;1.00;;;;;18.19;67.79;99792.19;5097148;27;45498;-81
2023/10/16 03:41:27;;;;;;;;;2.00;2.00;;;;;18.19;67.90;99782.50;5096995;27;46526;-83
2023/10/16 03:43:58;;;;;;;;;0.00;0.00;;;;;18.25;67.72;99786.81;5097544;27;45562;-83
2023/10/16 03:46:27;;;;;;;;;1.00;1.00;;;;;18.23;67.30;99767.47;5096791;27;45401;-83
2023/10/16 03:48:54;;;;;;;;;1.00;1.00;;;;;18.35;67.45;99779.66;5097017;27;45354;-83
2023/10/16 03:51:21;;;;;;;;;1.33;1.33;;;;;18.40;67.55;99775.16;5096009;27;45660;-83
2023/10/16 03:53:47;;;;;;;;;0.00;0.00;;;;;18.44;67.63;99782.13;5096992;27;45415;-82
2023/10/16 03:56:13;;;;;;;;;1.00;1.00;;;;;18.39;67.25;99758.41;5096638;27;46101;-82
2023/10/16 03:58:44;;;;;;;;;1.00;1.00;;;;;18.34;67.42;99754.09;5096440;27;45578;-82
2023/10/16 04:01:11;;;;;;;;;1.33;1.00;;;;;18.35;67.26;99762.00;5095001;27;45495;-82
2023/10/16 04:03:47;;;;;;;;;1.00;1.00;;;;;18.51;67.67;99782.94;5097125;27;45479;-83
2023/10/16 04:06:19;;;;;;;;;2.00;2.00;;;;;18.51;67.66;99783.81;5079577;27;46248;-83
2023/10/16 04:08:47;;;;;;;;;3.00;2.00;;;;;18.48;67.67;99790.03;5097007;27;45413;-83
2023/10/16 04:11:13;;;;;;;;;2.00;2.00;;;;;18.43;67.69;99778.63;5096095;27;45574;-83
2023/10/16 04:13:47;;;;;;;;;3.00;3.00;;;;;18.39;68.28;99773.41;5097230;27;45447;-83
2023/10/16 04:16:29;;;;;;;;;1.33;1.33;;;;;18.45;67.80;99794.47;5095651;27;47102;-83
2023/10/16 04:18:56;;;;;;;;;2.00;2.00;;;;;18.44;67.82;99790.06;5096516;27;45256;-83
2023/10/16 04:29:46;;;;;;;;;2.00;2.00;;;;;18.16;67.10;99734.06;5096898;27;45283;-83
2023/10/16 04:35:03;;;;;;;;;3.00;2.00;;;;;18.40;68.12;99781.34;5097058;27;45267;-83
2023/10/16 04:37:40;;;;;;;;;3.00;2.00;;;;;18.44;68.23;99784.78;5096621;27;46083;-83
2023/10/16 06:16:20;;;;;;;;;4.00;4.00;;;;;19.03;65.07;99721.25;5098046;27;45366;-81
2023/10/16 06:18:49;;;;;;;;;2.67;2.67;;;;;19.00;64.70;99714.25;5076795;27;45493;-83
2023/10/16 06:21:15;;;;;;;;;3.00;2.33;;;;;19.13;64.15;99728.13;5080270;27;45498;-82
2023/10/16 06:23:51;;;;;;;;;5.00;3.67;;;;;19.19;64.59;99729.81;5077909;27;46000;-73
2023/10/16 06:26:18;;;;;;;;;3.00;3.00;;;;;19.22;63.55;99720.03;5080262;27;45939;-79
2023/10/16 06:28:51;;;;;;;;;4.00;4.00;;;;;19.22;63.52;99704.16;5079411;27;45527;-76
2023/10/16 06:31:24;;;;;;;;;3.00;2.67;;;;;19.27;63.63;99704.06;5077468;27;45412;-77
2023/10/16 06:33:53;;;;;;;;;4.33;4.00;;;;;19.41;63.63;99725.84;5076188;27;46104;-79
2023/10/16 06:36:20;;;;;;;;;6.00;5.00;;;;;19.44;63.83;99723.16;5082267;27;45626;-83
2023/10/16 06:38:51;;;;;;;;;5.33;4.67;;;;;19.48;63.41;99721.31;5088415;27;45401;-83
2023/10/16 06:41:20;;;;;;;;;6.00;6.00;;;;;19.54;63.22;99726.50;5097875;27;45517;-83
2023/10/16 06:43:49;;;;;;;;;4.00;4.00;;;;;19.58;63.02;99722.88;5094179;27;45548;-82
2023/10/16 06:46:25;;;;;;;;;6.00;5.67;;;;;19.46;62.98;99688.69;5097822;27;45384;-82
2023/10/16 06:48:51;;;;;;;;;4.33;4.33;;;;;19.72;62.85;99719.09;5098480;27;45322;-82
2023/10/16 06:51:18;;;;;;;;;5.33;4.33;;;;;19.74;62.43;99720.81;5097760;27;45507;-81
2023/10/16 06:53:45;;;;;;;;;2.00;1.33;;;;;19.82;62.74;99713.56;5097287;27;45509;-82
2023/10/16 06:56:27;;;;;;;;;3.67;3.33;;;;;19.79;62.59;99712.75;5097543;27;45472;-83
2023/10/16 06:58:56;;;;;;;;;2.67;2.67;;;;;19.96;62.18;99717.72;5097094;27;45521;-82
2023/10/16 07:01:22;;;;;;;;;1.67;1.67;;;;;20.00;62.29;99716.75;5098026;27;45476;-81
2023/10/16 07:03:47;;;;;;;;;2.67;2.33;;;;;20.07;61.95;99718.31;5077510;27;46152;-85
2023/10/16 07:06:14;;;;;;;;;3.67;3.33;;;;;20.17;61.76;99719.00;5078981;27;45432;-79
2023/10/16 07:08:41;;;;;;;;;4.33;3.00;;;;;20.23;61.78;99722.41;5078090;27;45333;-81
2023/10/16 07:11:11;;;;;;;;;31.75;26.75;;;;;20.21;61.55;99707.41;5077403;27;45502;-80
2023/10/16 07:13:38;;;;;;;;;3.00;1.67;;;;;20.42;61.30;99719.31;5077049;27;46316;-80
2023/10/16 07:16:07;;;;;;;;;2.33;2.00;;;;;20.51;60.77;99715.56;5079032;27;45698;-79
2023/10/16 07:18:33;;;;;;;;;6.67;6.67;;;;;20.68;61.02;99721.38;5079461;27;45464;-82
2023/10/16 07:21:06;;;;;;;;;4.67;4.00;;;;;20.72;60.20;99707.09;5077323;27;45633;-82
2023/10/16 07:23:37;;;;;;;;;8.00;8.00;;;;;20.89;59.44;99719.06;5091897;27;46413;-80
2023/10/16 07:26:09;;;;;;;;;5.00;4.67;;;;;20.97;59.50;99712.69;5085352;27;45471;-81
2023/10/16 07:28:35;;;;;;;;;5.33;3.00;;;;;21.16;59.65;99725.47;5076058;27;45443;-81
2023/10/16 07:31:02;;;;;;;;;4.00;4.00;;;;;21.30;58.73;99717.13;5079291;27;45284;-81
2023/10/16 07:33:28;;;;;;;;;4.00;4.00;;;;;21.50;58.21;99722.78;5078982;27;45304;-82
2023/10/16 07:35:57;;;;;;;;;50.00;41.00;;;;;21.72;57.94;99719.50;5073864;27;45979;-81
2023/10/16 07:38:25;;;;;;;;;11.00;9.33;;;;;21.97;57.30;99717.88;5077947;27;45673;-81
2023/10/16 07:40:56;;;;;;;;;19.25;17.75;;;;;22.21;56.30;99715.38;5078357;27;47057;-82
2023/10/16 07:43:33;;;;;;;;;4.00;4.00;;;;;22.51;55.77;99723.34;5078763;27;46232;-81
2023/10/16 07:49:01;;;;;;;;;5.00;4.00;;;;;25.76;51.66;99723.22;5075400;27;45479;-83
2023/10/16 07:51:27;;;;;;;;;3.00;3.00;;;;;27.26;46.93;99718.72;5078283;27;45436;-81
2023/10/16 07:53:54;;;;;;;;;3.00;2.00;;;;;27.73;46.28;99710.81;5076118;27;45594;-83
2023/10/16 07:58:54;;;;;;;;;3.00;3.00;;;;;28.44;44.57;99723.00;5096057;27;45539;-82
2023/10/16 08:01:32;;;;;;;;;8.00;8.00;;;;;28.26;44.31;99719.56;5096443;27;45372;-82
2023/10/16 08:03:58;;;;;;;;;3.00;3.00;;;;;28.23;43.03;99717.06;5095132;27;46119;-83
2023/10/16 08:06:25;;;;;;;;;4.00;4.00;;;;;27.79;43.89;99720.34;5095401;27;45542;-82
2023/10/16 08:11:36;;;;;;;;;3.00;3.00;;;;;26.95;45.64;99736.34;5094968;27;45463;-83
2023/10/16 08:14:06;;;;;;;;;3.00;2.00;;;;;26.69;46.58;99741.19;5095872;27;45451;-82
2023/10/16 08:16:32;;;;;;;;;2.67;2.00;;;;;26.53;46.13;99741.06;5097308;27;45180;-83
2023/10/16 08:18:57;;;;;;;;;3.67;3.67;;;;;26.37;46.19;99737.38;5097802;27;45413;-83
2023/10/16 08:21:26;;;;;;;;;2.67;2.33;;;;;26.29;46.64;99736.91;5098031;27;45165;-82
2023/10/16 08:23:53;;;;;;;;;4.00;3.00;;;;;26.20;46.59;99738.19;5096092;27;45502;-82
2023/10/16 08:26:28;;;;;;;;;3.00;3.00;;;;;26.10;47.54;99737.78;5097431;27;45678;-82
2023/10/16 08:34:35;;;;;;;;;2.33;2.00;;;;;25.84;47.73;99733.59;5097484;27;45589;-83
2023/10/16 08:37:03;;;;;;;;;2.00;2.00;;;;;25.80;48.45;99737.34;5097231;27;45435;-82
2023/10/16 08:39:36;;;;;;;;;3.00;3.00;;;;;25.84;48.17;99740.75;5097637;27;45506;-82
2023/10/16 08:42:18;;;;;;;;;4.00;4.00;;;;;25.89;48.11;99734.25;5097498;27;45497;-80
2023/10/16 08:44:51;;;;;;;;;3.00;3.00;;;;;25.95;47.75;99731.31;5097513;27;46168;-79
2023/10/16 08:47:24;;;;;;;;;3.33;3.33;;;;;26.05;47.81;99728.22;5098310;27;45168;-82
2023/10/16 08:49:54;;;;;;;;;5.33;4.33;;;;;25.99;48.02;99695.44;5100448;27;45212;-81
2023/10/16 08:52:22;;;;;;;;;3.00;3.00;;;;;26.22;48.70;99711.34;5100363;27;45573;-82
2023/10/16 08:57:25;;;;;;;;;4.67;4.00;;;;;26.40;47.98;99710.44;5102061;27;45346;-82
2023/10/16 08:59:52;;;;;;;;;3.00;3.00;;;;;26.48;47.54;99710.97;5101798;27;45496;-82
2023/10/16 09:02:24;;;;;;;;;3.00;3.00;;;;;26.59;47.06;99710.47;5101960;27;45321;-82
2023/10/16 09:04:52;;;;;;;;;4.00;4.00;;;;;26.77;47.24;99708.66;5100533;27;46402;-82
2023/10/16 09:07:19;;;;;;;;;2.00;1.00;;;;;26.73;45.79;99678.47;5103398;27;45295;-82
2023/10/16 09:09:48;;;;;;;;;2.67;2.67;;;;;27.28;45.54;99708.78;5100906;27;45305;-80
2023/10/16 09:12:24;;;;;;;;;5.33;5.00;;;;;27.52;44.55;99677.13;5100652;27;45465;-82
2023/10/16 09:14:51;;;;;;;;;3.00;2.00;;;;;28.53;43.33;99702.84;5101648;27;45683;-82
2023/10/16 09:17:19;;;;;;;;;3.33;3.33;;;;;29.60;40.96;99700.91;5098620;27;45488;-82
2023/10/16 09:19:48;;;;;;;;;3.33;3.00;;;;;30.51;39.73;99700.53;5103608;27;45483;-76
2023/10/16 09:22:33;;;;;;;;;3.00;3.00;;;;;30.96;38.88;99676.88;5060820;28;45315;-81
2023/10/16 09:24:59;;;;;;;;;3.33;3.00;;;;;31.59;37.02;99690.50;5059547;28;46097;-80
2023/10/16 09:27:30;;;;;;;;;3.00;3.00;;;;;31.93;36.53;99691.63;5064547;28;45177;-78
2023/10/16 09:30:00;;;;;;;;;4.33;1.67;;;;;32.37;37.07;99698.38;5061613;28;45779;-81
2023/10/16 09:32:42;;;;;;;;;2.00;2.00;;;;;32.94;36.16;99687.81;5061471;27;45418;-79
2023/10/16 09:35:30;;;;;;;;;2.00;2.00;;;;;33.02;35.32;99679.97;5088934;27;46071;-81
2023/10/16 09:38:17;;;;;;;;;3.67;2.00;;;;;33.25;35.32;99680.94;5100455;27;45412;-81
2023/10/16 09:40:58;;;;;;;;;0.00;0.00;;;;;33.42;33.75;99676.88;5101360;27;45330;-81
2023/10/16 09:43:27;;;;;;;;;2.00;2.00;;;;;33.74;33.06;99698.69;5100760;27;45346;-81
2023/10/16 09:48:39;;;;;;;;;2.00;1.00;;;;;34.35;33.75;99683.88;5105439;27;45425;-76
2023/10/16 09:51:09;;;;;;;;;5.00;4.00;;;;;34.67;33.20;99689.34;5102587;27;45334;-77
2023/10/16 09:53:35;;;;;;;;;2.00;2.00;;;;;34.81;32.94;99690.88;5101958;27;45434;-76
2023/10/16 09:56:04;;;;;;;;;2.00;2.00;;;;;35.23;33.17;99701.78;5101169;27;46248;-76
2023/10/16 09:58:34;;;;;;;;;1.67;1.67;;;;;35.51;32.09;99693.94;5100602;27;45430;-81
2023/10/16 10:01:13;;;;;;;;;2.67;2.00;;;;;35.50;31.00;99693.09;5103225;27;45270;-78
2023/10/16 10:03:41;;;;;;;;;2.33;2.33;;;;;35.23;30.60;99686.34;5102705;27;45308;-79
2023/10/16 10:06:12;;;;;;;;;1.67;1.67;;;;;35.41;31.65;99694.72;5103090;27;46204;-77
2023/10/16 10:11:53;;;;;;;;;3.00;2.33;;;;;35.15;32.10;99694.25;5100812;27;45479;-77
2023/10/16 10:16:58;;;;;;;;;2.67;2.00;;;;;34.18;31.70;99682.53;5099973;27;45265;-81
2023/10/16 10:19:35;;;;;;;;;2.00;2.00;;;;;33.20;33.08;99693.94;5101134;27;45340;-75
2023/10/16 10:22:17;;;;;;;;;2.00;2.00;;;;;32.52;33.58;99695.50;5101051;27;45324;-82
2023/10/16 10:25:24;;;;;;;;;1.00;1.00;;;;;32.14;35.15;99685.69;5104819;27;45224;-80
2023/10/16 10:27:53;;;;;;;;;1.67;1.67;;;;;32.11;34.68;99659.75;5103002;27;45405;-81
2023/10/16 10:30:28;;;;;;;;;2.67;2.67;;;;;32.24;34.71;99689.44;5103505;27;45243;-80
2023/10/16 10:32:58;;;;;;;;;3.67;3.00;;;;;32.54;34.64;99682.72;5102965;27;45468;-80
2023/10/16 10:35:29;;;;;;;;;5.00;4.67;;;;;32.32;35.04;99668.09;5098951;27;45402;-74
2023/10/16 10:38:21;;;;;;;;;2.67;2.67;;;;;31.86;35.01;99677.72;5099969;27;46083;-75
2023/10/16 10:41:06;;;;;;;;;2.67;2.67;;;;;31.84;35.70;99668.03;5099334;27;45338;-83
2023/10/16 10:43:50;;;;;;;;;3.00;3.00;;;;;31.49;35.86;99658.75;5099310;27;45336;-79
2023/10/16 10:46:22;;;;;;;;;3.00;2.33;;;;;31.45;36.30;99667.19;5098937;27;45591;-81
2023/10/16 10:48:48;;;;;;;;;1.33;1.33;;;;;31.12;36.96;99665.88;5098710;27;46141;-76
2023/10/16 10:51:15;;;;;;;;;4.00;4.00;;;;;31.19;36.93;99669.00;5098788;27;45503;-81
2023/10/16 10:54:06;;;;;;;;;2.00;2.00;;;;;31.22;36.92;99666.09;5101847;27;45384;-79
2023/10/16 10:56:50;;;;;;;;;3.00;3.00;;;;;31.05;36.45;99661.88;5101780;27;45517;-81
2023/10/16 10:59:40;;;;;;;;;3.00;3.00;;;;;31.05;37.71;99653.78;5103240;27;46237;-79
2023/10/16 11:04:53;;;;;;;;;3.00;2.00;;;;;31.18;37.48;99657.34;5101768;27;45509;-80
2023/10/16 11:07:39;;;;;;;;;2.33;2.33;;;;;31.19;37.02;99658.22;5101403;27;45446;-77
2023/10/16 11:10:06;;;;;;;;;6.00;4.67;;;;;30.91;36.93;99657.44;5101460;27;45452;-80
2023/10/16 11:12:32;;;;;;;;;3.00;3.00;;;;;30.62;37.62;99657.56;5101136;27;45376;-82
2023/10/16 11:15:01;;;;;;;;;3.33;3.33;;;;;30.48;37.33;99665.69;5098704;27;45274;-81
2023/10/16 11:17:40;;;;;;;;;3.00;2.67;;;;;30.48;37.57;99665.69;5099103;27;45187;-82
2023/10/16 11:22:45;;;;;;;;;2.67;2.67;;;;;30.32;37.12;99666.75;5098376;27;45545;-82
2023/10/16 11:25:14;;;;;;;;;2.00;2.00;;;;;30.11;37.49;99665.41;5098588;27;45265;-81
2023/10/16 11:27:43;;;;;;;;;4.00;4.00;;;;;30.13;37.49;99667.03;5098562;27;45565;-82
2023/10/16 11:30:15;;;;;;;;;2.00;2.00;;;;;29.92;38.15;99638.81;5098283;27;45303;-82
2023/10/16 11:32:45;;;;;;;;;3.00;3.00;;;;;30.10;37.74;99658.28;5098235;27;45398;-82
2023/10/16 11:35:15;;;;;;;;;4.00;3.00;;;;;30.14;37.53;99655.31;5097786;27;45546;-81
2023/10/16 11:37:50;;;;;;;;;4.00;4.00;;;;;29.96;38.13;99661.88;5098617;27;45301;-82
2023/10/16 11:40:19;;;;;;;;;4.33;4.00;;;;;30.00;38.13;99654.47;5098040;27;46097;-82
2023/10/16 11:42:46;;;;;;;;;4.00;4.00;;;;;29.77;37.98;99640.69;5096845;27;45552;-81
2023/10/16 11:45:18;;;;;;;;;2.00;2.00;;;;;29.71;37.92;99636.53;5098123;27;45448;-81
2023/10/16 11:47:44;;;;;;;;;3.00;3.00;;;;;29.53;38.40;99635.84;5098105;27;45479;-82
2023/10/16 11:50:17;;;;;;;;;4.00;4.00;;;;;29.53;38.29;99635.84;5097631;27;46172;-81
2023/10/16 11:52:43;;;;;;;;;4.00;4.00;;;;;29.37;38.60;99634.22;5097996;27;45544;-79
2023/10/16 11:55:09;;;;;;;;;7.00;7.00;;;;;29.19;39.01;99636.22;5098202;27;45238;-80
2023/10/16 11:57:34;;;;;;;;;3.33;3.00;;;;;28.96;38.72;99611.59;5097968;27;45439;-81
2023/10/16 12:00:18;;;;;;;;;3.00;3.00;;;;;29.13;38.88;99637.50;5097821;27;45970;-81
2023/10/16 12:02:46;;;;;;;;;3.00;3.00;;;;;29.06;39.45;99639.63;5098114;27;45180;-82
2023/10/16 12:05:12;;;;;;;;;7.67;7.00;;;;;29.08;39.04;99635.03;5097256;27;45242;-82
2023/10/16 12:07:43;;;;;;;;;5.00;4.00;;;;;29.06;39.65;99644.16;5098142;27;45312;-82
2023/10/16 12:10:15;;;;;;;;;3.00;3.00;;;;;28.92;39.86;99642.31;5097546;27;45228;-83
2023/10/16 12:12:41;;;;;;;;;3.67;3.67;;;;;28.84;39.84;99648.16;5097427;27;45305;-81
2023/10/16 12:15:09;;;;;;;;;3.00;3.00;;;;;28.82;39.88;99630.38;5097782;27;45337;-79
2023/10/16 12:17:36;;;;;;;;;4.33;4.33;;;;;28.70;40.21;99607.81;5097760;27;45357;-81
2023/10/16 12:20:09;;;;;;;;;4.33;4.00;;;;;28.95;39.80;99634.06;5097423;27;46083;-81
2023/10/16 12:22:39;;;;;;;;;4.00;4.00;;;;;28.85;39.63;99590.75;5100408;27;45280;-81
2023/10/16 12:25:09;;;;;;;;;3.33;3.33;;;;;28.99;39.47;99608.72;5101543;27;45606;-81
2023/10/16 12:27:36;;;;;;;;;2.00;2.00;;;;;28.76;39.25;99618.19;5101162;27;45301;-81
2023/10/16 12:30:03;;;;;;;;;4.00;3.67;;;;;28.79;39.50;99620.69;5101105;27;46254;-81
2023/10/16 12:32:30;;;;;;;;;4.00;4.00;;;;;28.62;40.05;99578.69;5101478;27;45340;-82
2023/10/16 12:34:58;;;;;;;;;7.00;7.00;;;;;28.87;40.03;99591.53;5100485;27;45452;-81
2023/10/16 12:37:23;;;;;;;;;4.33;3.67;;;;;29.02;40.17;99584.31;5101079;27;45546;-81
2023/10/16 12:39:52;;;;;;;;;5.00;5.00;;;;;29.33;40.10;99599.44;5099151;27;45494;-76
2023/10/16 12:42:18;;;;;;;;;2.33;2.00;;;;;29.53;38.94;99586.56;5100908;27;45329;-82
2023/10/16 12:44:44;;;;;;;;;3.67;3.67;;;;;29.86;38.72;99604.22;5101079;27;45453;-81
2023/10/16 12:47:13;;;;;;;;;6.67;6.67;;;;;29.75;38.15;99604.91;5100935;27;45506;-81
2023/10/16 12:49:39;;;;;;;;;4.00;3.00;;;;;29.72;38.04;99589.84;5100602;27;45334;-81
2023/10/16 12:52:05;;;;;;;;;3.00;3.00;;;;;29.83;38.88;99604.41;5100722;27;45264;-81
2023/10/16 12:54:31;;;;;;;;;4.00;4.00;;;;;29.53;38.35;99565.91;5100956;27;45625;-82
2023/10/16 12:56:57;;;;;;;;;2.33;2.33;;;;;29.89;38.16;99593.25;5100835;27;45150;-82
2023/10/16 12:59:26;;;;;;;;;4.00;4.00;;;;;30.00;38.14;99604.16;5100526;27;45613;-82
2023/10/16 13:01:52;;;;;;;;;4.00;3.00;;;;;29.99;38.75;99599.75;5100614;27;45473;-82
2023/10/16 13:04:19;;;;;;;;;4.00;3.00;;;;;29.79;38.52;99594.81;5100003;27;45894;-82
2023/10/16 13:06:45;;;;;;;;;3.00;3.00;;;;;29.83;38.00;99588.28;5099973;27;45458;-82
2023/10/16 13:09:15;;;;;;;;;3.00;3.00;;;;;29.99;38.01;99588.13;5100297;27;46040;-81
2023/10/16 13:11:41;;;;;;;;;1.33;1.00;;;;;30.11;38.28;99593.56;5100446;27;45385;-81
2023/10/16 13:14:07;;;;;;;;;3.67;3.00;;;;;29.87;37.83;99579.88;5100586;27;45526;-81
2023/10/16 13:16:33;;;;;;;;;3.00;2.67;;;;;29.62;38.58;99583.25;5100680;27;45452;-81
2023/10/16 13:18:59;;;;;;;;;3.67;3.67;;;;;29.47;38.96;99570.81;5100526;27;45482;-81
2023/10/16 13:21:38;;;;;;;;;3.00;3.00;;;;;29.49;39.16;99563.50;5100139;27;45393;-82
2023/10/16 13:24:16;;;;;;;;;3.00;3.00;;;;;29.45;38.53;99578.97;5100640;27;45418;-82
2023/10/16 13:26:42;;;;;;;;;3.00;3.00;;;;;29.29;39.36;99578.22;5100227;27;46110;-82
2023/10/16 13:29:12;;;;;;;;;4.00;3.00;;;;;29.13;38.78;99554.97;5099851;27;46239;-82
2023/10/16 13:31:46;;;;;;;;;6.67;5.33;;;;;29.19;38.95;99572.56;5099954;27;45331;-84
2023/10/16 13:34:13;;;;;;;;;5.33;4.67;;;;;29.06;39.57;99564.34;5098742;27;45290;-84
2023/10/16 13:37:08;;;;;;;;;5.00;4.00;;;;;29.04;39.12;99543.91;5100607;27;45529;-84
2023/10/16 13:39:34;;;;;;;;;3.67;3.00;;;;;29.28;39.40;99566.59;5100051;27;46493;-84
2023/10/16 13:41:59;;;;;;;;;2.67;2.00;;;;;29.50;39.55;99566.06;5099713;27;45464;-84
2023/10/16 13:44:25;;;;;;;;;3.33;3.33;;;;;29.65;38.99;99566.06;5100232;27;45391;-82
2023/10/16 13:46:53;;;;;;;;;3.33;2.33;;;;;29.71;39.29;99562.97;5100023;27;45369;-86
2023/10/16 13:49:18;;;;;;;;;5.00;4.00;;;;;29.68;39.19;99553.25;5099902;27;46085;-85
2023/10/16 13:51:45;;;;;;;;;2.00;2.00;;;;;29.58;39.41;99559.34;5099835;27;45241;-83
2023/10/16 13:54:12;;;;;;;;;4.00;3.33;;;;;29.44;39.14;99544.94;5099913;27;45381;-89
2023/10/16 13:56:47;;;;;;;;;3.00;3.00;;;;;29.63;39.10;99558.09;5100123;27;45413;-81
2023/10/16 13:59:14;;;;;;;;;4.00;4.00;;;;;29.68;38.95;99568.56;5099395;27;45440;-80
2023/10/16 14:01:39;;;;;;;;;3.00;3.00;;;;;29.55;39.46;99555.91;5099507;27;45519;-73
2023/10/16 14:04:15;;;;;;;;;11.33;11.33;;;;;29.48;39.12;99556.38;5094782;27;45332;-72
2023/10/16 14:06:43;;;;;;;;;4.00;4.00;;;;;29.40;38.90;99538.03;5077900;28;45548;-72